Time;durP1;ratioP1;P1;durP2;ratioP2;P2;SDS_P1;SDS_P2;PMS_P1;PMS_P2;Temp;Humidity;BMP_temperature;BMP_pressure;BME280_temperature;BME280_humidity;BME280_pressure;Samples;Min_cycle;Max_cycle;Signal;HPM_P1;HPM_P2
2021/04/20 00:02:23;;;;;;;15.63;6.63;;;;;;;;;;3592539;39;20032;-55
2021/04/20 00:04:49;;;;;;;9.68;6.78;;;;;;;;;;3589734;39;20051;-55
2021/04/20 00:07:15;;;;;;;7.93;5.88;;;;;;;;;;3591863;39;20037;-52
2021/04/20 00:09:41;;;;;;;11.43;6.80;;;;;;;;;;3592743;39;20068;-56
2021/04/20 00:12:07;;;;;;;8.23;6.05;;;;;;;;;;3591343;40;20044;-55
2021/04/20 00:14:32;;;;;;;10.07;6.72;;;;;;;;;;3592022;39;20067;-54
2021/04/20 00:16:58;;;;;;;9.63;6.32;;;;;;;;;;3592202;40;20031;-54
2021/04/20 00:19:23;;;;;;;10.48;6.15;;;;;;;;;;3592789;40;20352;-52
2021/04/20 00:21:49;;;;;;;8.73;6.35;;;;;;;;;;3590063;39;20048;-51
2021/04/20 00:24:14;;;;;;;7.80;5.65;;;;;;;;;;3591915;39;20039;-54
2021/04/20 00:26:40;;;;;;;7.68;5.53;;;;;;;;;;3593084;40;20039;-51
2021/04/20 00:29:06;;;;;;;9.00;6.32;;;;;;;;;;3590949;40;20055;-54
2021/04/20 00:31:31;;;;;;;8.73;6.45;;;;;;;;;;3591213;39;20811;-55
2021/04/20 00:33:56;;;;;;;7.40;5.63;;;;;;;;;;3589748;39;20048;-54
2021/04/20 00:36:22;;;;;;;14.05;7.03;;;;;;;;;;3591600;40;20035;-53
2021/04/20 00:38:47;;;;;;;10.18;6.75;;;;;;;;;;3592648;39;20028;-51
2021/04/20 00:41:14;;;;;;;10.20;6.80;;;;;;;;;;3589487;39;20045;-53
2021/04/20 00:43:42;;;;;;;8.43;6.72;;;;;;;;;;3591866;39;20089;-53
2021/04/20 00:46:13;;;;;;;9.40;6.30;;;;;;;;;;3591544;40;20153;-56
2021/04/20 00:48:39;;;;;;;7.00;5.55;;;;;;;;;;3589704;39;20305;-56
2021/04/20 00:51:05;;;;;;;8.68;5.50;;;;;;;;;;3588919;40;20151;-52
2021/04/20 00:53:31;;;;;;;9.15;5.47;;;;;;;;;;3592506;39;20132;-54
2021/04/20 00:55:56;;;;;;;8.80;6.10;;;;;;;;;;3590573;40;20384;-54
2021/04/20 00:58:22;;;;;;;8.43;4.88;;;;;;;;;;3591011;40;20028;-54
2021/04/20 01:00:49;;;;;;;7.25;5.20;;;;;;;;;;3592433;39;20076;-54
2021/04/20 01:03:15;;;;;;;10.50;6.00;;;;;;;;;;3591387;40;20028;-54
2021/04/20 01:05:41;;;;;;;10.57;5.43;;;;;;;;;;3588644;40;20029;-54
2021/04/20 01:08:08;;;;;;;5.40;3.67;;;;;;;;;;3588836;40;20047;-52
2021/04/20 01:10:42;;;;;;;5.88;4.68;;;;;;;;;;3590801;39;20064;-52
2021/04/20 01:13:09;;;;;;;5.47;4.18;;;;;;;;;;3591382;40;20063;-54
2021/04/20 01:15:35;;;;;;;6.50;4.20;;;;;;;;;;3591048;39;20052;-54
2021/04/20 01:18:16;;;;;;;6.13;4.30;;;;;;;;;;3590659;40;20129;-51
2021/04/20 01:20:46;;;;;;;5.80;4.57;;;;;;;;;;3590399;39;20355;-52
2021/04/20 01:23:13;;;;;;;7.45;5.30;;;;;;;;;;3590843;39;20238;-50
2021/04/20 01:25:40;;;;;;;7.00;5.32;;;;;;;;;;3591005;39;20318;-56
2021/04/20 01:28:06;;;;;;;5.90;4.90;;;;;;;;;;3588809;40;20376;-53
2021/04/20 01:30:33;;;;;;;8.15;5.38;;;;;;;;;;3588867;39;20028;-52
2021/04/20 01:33:03;;;;;;;8.55;5.90;;;;;;;;;;3590359;40;20461;-55
2021/04/20 01:35:29;;;;;;;8.52;5.75;;;;;;;;;;3591016;39;20032;-54
2021/04/20 01:37:54;;;;;;;6.28;5.35;;;;;;;;;;3588905;40;20118;-50
2021/04/20 01:40:19;;;;;;;7.10;5.00;;;;;;;;;;3591133;40;20044;-52
2021/04/20 01:42:45;;;;;;;10.18;5.47;;;;;;;;;;3591724;39;20048;-51
2021/04/20 01:45:11;;;;;;;10.38;6.70;;;;;;;;;;3589249;39;20032;-52
2021/04/20 01:47:37;;;;;;;7.97;5.97;;;;;;;;;;3590308;39;20032;-50
2021/04/20 01:50:04;;;;;;;8.68;6.35;;;;;;;;;;3588151;40;20125;-53
2021/04/20 01:52:29;;;;;;;6.63;5.35;;;;;;;;;;3590149;39;20024;-50
2021/04/20 01:54:55;;;;;;;7.47;4.78;;;;;;;;;;3590055;39;20330;-54
2021/04/20 01:57:21;;;;;;;7.13;5.05;;;;;;;;;;3588655;40;20368;-55
2021/04/20 01:59:47;;;;;;;10.18;5.00;;;;;;;;;;3591047;39;20059;-52
2021/04/20 02:02:13;;;;;;;8.13;5.68;;;;;;;;;;3589366;39;20028;-53
2021/04/20 02:04:38;;;;;;;8.75;5.32;;;;;;;;;;3590392;39;20044;-52
2021/04/20 02:07:04;;;;;;;8.10;5.63;;;;;;;;;;3592457;39;20064;-54
2021/04/20 02:09:29;;;;;;;7.85;6.25;;;;;;;;;;3592299;39;20033;-54
2021/04/20 02:11:55;;;;;;;7.75;6.22;;;;;;;;;;3590273;40;20042;-54
2021/04/20 02:14:20;;;;;;;12.10;6.53;;;;;;;;;;3590617;40;20039;-54
2021/04/20 02:16:46;;;;;;;9.07;6.25;;;;;;;;;;3589708;39;20113;-49
2021/04/20 02:19:14;;;;;;;7.63;5.90;;;;;;;;;;3589461;40;20036;-54
2021/04/20 02:21:40;;;;;;;8.00;6.55;;;;;;;;;;3590338;39;20063;-52
2021/04/20 02:24:08;;;;;;;9.45;6.20;;;;;;;;;;3589154;40;20037;-53
2021/04/20 02:26:37;;;;;;;10.25;7.20;;;;;;;;;;3590673;39;20059;-53
2021/04/20 02:29:05;;;;;;;8.18;6.90;;;;;;;;;;3591708;40;20029;-53
2021/04/20 02:31:38;;;;;;;8.50;6.47;;;;;;;;;;3591593;39;20043;-53
2021/04/20 02:34:07;;;;;;;9.95;6.68;;;;;;;;;;3590113;40;20246;-54
2021/04/20 02:36:38;;;;;;;13.20;7.88;;;;;;;;;;3590118;39;20032;-54
2021/04/20 02:39:04;;;;;;;12.32;7.60;;;;;;;;;;3589936;39;20051;-53
2021/04/20 02:41:30;;;;;;;11.18;7.53;;;;;;;;;;3591450;39;20384;-54
2021/04/20 02:43:56;;;;;;;10.52;8.45;;;;;;;;;;3590503;40;20037;-54
2021/04/20 02:46:22;;;;;;;9.77;7.90;;;;;;;;;;3590675;40;20024;-50
2021/04/20 02:48:50;;;;;;;12.60;8.95;;;;;;;;;;3589715;39;20106;-52
2021/04/20 02:51:16;;;;;;;10.02;7.60;;;;;;;;;;3590883;39;20183;-53
2021/04/20 02:53:43;;;;;;;11.05;7.88;;;;;;;;;;3590620;40;20039;-53
2021/04/20 02:56:12;;;;;;;10.93;7.95;;;;;;;;;;3591030;40;20052;-53
2021/04/20 02:58:39;;;;;;;11.15;8.75;;;;;;;;;;3589957;40;20362;-52
2021/04/20 03:01:07;;;;;;;11.20;8.13;;;;;;;;;;3589798;39;20025;-51
2021/04/20 03:03:40;;;;;;;10.90;8.27;;;;;;;;;;3596051;39;20363;-54
2021/04/20 03:06:06;;;;;;;12.00;8.23;;;;;;;;;;3590795;40;20032;-51
2021/04/20 03:08:32;;;;;;;12.13;8.55;;;;;;;;;;3590365;39;20029;-51
2021/04/20 03:11:02;;;;;;;11.93;8.93;;;;;;;;;;3591398;40;20477;-52
2021/04/20 03:13:28;;;;;;;10.32;7.75;;;;;;;;;;3590741;40;20068;-51
2021/04/20 03:15:55;;;;;;;11.55;8.32;;;;;;;;;;3591478;40;20044;-54
2021/04/20 03:18:20;;;;;;;10.57;8.38;;;;;;;;;;3593880;39;20032;-54
2021/04/20 03:20:46;;;;;;;11.23;8.80;;;;;;;;;;3591069;39;20033;-52
2021/04/20 03:23:12;;;;;;;10.70;8.40;;;;;;;;;;3589702;40;20383;-51
2021/04/20 03:25:37;;;;;;;12.68;9.05;;;;;;;;;;3590104;39;20110;-52
2021/04/20 03:28:03;;;;;;;12.85;8.50;;;;;;;;;;3589747;40;20344;-53
2021/04/20 03:30:32;;;;;;;13.30;8.40;;;;;;;;;;3591299;39;20482;-49
2021/04/20 03:33:11;;;;;;;11.10;8.07;;;;;;;;;;3592994;39;20029;-53
2021/04/20 03:35:42;;;;;;;12.45;8.40;;;;;;;;;;3591685;39;20040;-52
2021/04/20 03:38:38;;;;;;;13.07;9.57;;;;;;;;;;3589935;39;20040;-55
2021/04/20 03:41:10;;;;;;;13.23;9.00;;;;;;;;;;3590377;40;20073;-55
2021/04/20 03:43:38;;;;;;;14.77;10.30;;;;;;;;;;3590882;39;20678;-55
2021/04/20 03:46:18;;;;;;;14.52;9.43;;;;;;;;;;3592823;39;20046;-52
2021/04/20 03:48:48;;;;;;;11.80;8.85;;;;;;;;;;3589099;39;20032;-53
2021/04/20 03:51:16;;;;;;;18.43;9.43;;;;;;;;;;3591291;40;20040;-54
2021/04/20 03:53:45;;;;;;;14.88;9.73;;;;;;;;;;3589526;40;20069;-53
2021/04/20 03:56:12;;;;;;;14.93;10.93;;;;;;;;;;3591879;40;20694;-53
2021/04/20 03:58:41;;;;;;;16.63;11.13;;;;;;;;;;3589213;40;20055;-53
2021/04/20 04:01:09;;;;;;;15.63;10.77;;;;;;;;;;3589434;39;20036;-52
2021/04/20 04:03:36;;;;;;;35.28;12.93;;;;;;;;;;3593601;39;20040;-52
2021/04/20 04:06:05;;;;;;;42.72;13.63;;;;;;;;;;3590573;40;20040;-54
2021/04/20 04:08:35;;;;;;;62.85;14.82;;;;;;;;;;3588249;40;20076;-54
2021/04/20 04:11:02;;;;;;;92.73;15.33;;;;;;;;;;3589035;40;20122;-55
2021/04/20 04:13:29;;;;;;;163.02;16.10;;;;;;;;;;3588875;40;20048;-54
2021/04/20 04:16:02;;;;;;;106.65;15.43;;;;;;;;;;3589507;40;20068;-54
2021/04/20 04:18:30;;;;;;;151.18;14.60;;;;;;;;;;3590251;39;20032;-56
2021/04/20 04:20:59;;;;;;;101.90;14.52;;;;;;;;;;3589306;40;20029;-55
2021/04/20 04:23:30;;;;;;;65.43;14.10;;;;;;;;;;3590121;40;20025;-55
2021/04/20 04:26:04;;;;;;;;;;;;;;;;;;3589642;40;20043;-52
2021/04/20 04:28:31;;;;;;;38.42;14.93;;;;;;;;;;3590170;39;19934;-54
2021/04/20 04:30:58;;;;;;;44.05;15.98;;;;;;;;;;3589089;40;20056;-54
2021/04/20 04:33:25;;;;;;;29.70;15.20;;;;;;;;;;3590094;40;20377;-53
2021/04/20 04:35:52;;;;;;;28.90;17.08;;;;;;;;;;3590026;40;20040;-53
2021/04/20 04:38:17;;;;;;;22.60;15.27;;;;;;;;;;3589680;39;20172;-53
2021/04/20 04:40:44;;;;;;;30.77;18.05;;;;;;;;;;3589647;40;20048;-53
2021/04/20 04:43:10;;;;;;;34.65;17.02;;;;;;;;;;3588651;40;20040;-50
2021/04/20 04:45:35;;;;;;;25.50;16.63;;;;;;;;;;3589868;39;20028;-52
2021/04/20 04:48:02;;;;;;;31.15;16.30;;;;;;;;;;3589659;39;20133;-54
2021/04/20 04:50:29;;;;;;;55.15;17.42;;;;;;;;;;3588893;40;20372;-52
2021/04/20 04:52:55;;;;;;;31.40;17.90;;;;;;;;;;3589323;39;20045;-50
2021/04/20 04:55:21;;;;;;;45.95;17.02;;;;;;;;;;3592127;39;20052;-55
2021/04/20 04:57:51;;;;;;;31.75;17.58;;;;;;;;;;3588933;39;20070;-54
2021/04/20 05:00:17;;;;;;;58.97;18.05;;;;;;;;;;3588749;40;20047;-54
2021/04/20 05:02:43;;;;;;;56.83;16.67;;;;;;;;;;3589288;40;20052;-54
2021/04/20 05:05:13;;;;;;;31.10;17.58;;;;;;;;;;3589433;40;20044;-51
2021/04/20 05:07:38;;;;;;;63.63;15.57;;;;;;;;;;3588785;39;20067;-50
2021/04/20 05:10:06;;;;;;;55.95;15.23;;;;;;;;;;3589126;40;20032;-53
2021/04/20 05:12:33;;;;;;;87.78;15.40;;;;;;;;;;3590541;39;20262;-50
2021/04/20 05:15:06;;;;;;;53.38;14.32;;;;;;;;;;3588648;40;20032;-56
2021/04/20 05:17:32;;;;;;;98.07;15.15;;;;;;;;;;3589110;40;20032;-53
2021/04/20 05:19:58;;;;;;;84.47;13.57;;;;;;;;;;3590993;40;20053;-55
2021/04/20 05:22:24;;;;;;;112.30;14.20;;;;;;;;;;3590790;39;20055;-54
2021/04/20 05:24:49;;;;;;;55.15;13.88;;;;;;;;;;3589642;40;20334;-54
2021/04/20 05:27:15;;;;;;;43.13;14.13;;;;;;;;;;3591646;39;20128;-56
2021/04/20 05:29:40;;;;;;;55.63;14.07;;;;;;;;;;3590580;40;20357;-54
2021/04/20 05:32:09;;;;;;;57.95;13.88;;;;;;;;;;3589959;39;20044;-52
2021/04/20 05:34:35;;;;;;;63.28;14.55;;;;;;;;;;3589398;39;20072;-53
2021/04/20 05:37:02;;;;;;;43.25;14.52;;;;;;;;;;3589838;40;20122;-56
2021/04/20 05:39:27;;;;;;;45.40;13.63;;;;;;;;;;3589106;40;20047;-51
2021/04/20 05:41:53;;;;;;;45.53;14.60;;;;;;;;;;3588503;40;20056;-52
2021/04/20 05:44:18;;;;;;;56.47;13.55;;;;;;;;;;3588409;39;20033;-56
2021/04/20 05:46:46;;;;;;;43.40;13.60;;;;;;;;;;3588615;40;20040;-54
2021/04/20 05:49:12;;;;;;;58.63;13.95;;;;;;;;;;3588998;40;20072;-53
2021/04/20 05:51:40;;;;;;;36.65;13.02;;;;;;;;;;3589682;39;20028;-53
2021/04/20 05:54:07;;;;;;;96.43;12.82;;;;;;;;;;3588767;39;20040;-53
2021/04/20 05:56:33;;;;;;;53.72;11.43;;;;;;;;;;3588733;40;20084;-51
2021/04/20 05:59:00;;;;;;;23.35;11.93;;;;;;;;;;3587547;40;20074;-55
2021/04/20 06:01:27;;;;;;;104.82;12.55;;;;;;;;;;3590456;39;20159;-52
2021/04/20 06:03:54;;;;;;;48.67;12.23;;;;;;;;;;3589592;39;20063;-54
2021/04/20 06:06:21;;;;;;;25.70;11.48;;;;;;;;;;3590717;40;20047;-54
2021/04/20 06:08:49;;;;;;;41.47;11.23;;;;;;;;;;3588354;39;20276;-53
2021/04/20 06:11:16;;;;;;;70.68;12.65;;;;;;;;;;3589199;39;20041;-53
2021/04/20 06:13:41;;;;;;;50.92;11.02;;;;;;;;;;3590099;39;20093;-54
2021/04/20 06:16:09;;;;;;;58.67;13.52;;;;;;;;;;3590379;39;20125;-54
2021/04/20 06:18:37;;;;;;;45.83;12.27;;;;;;;;;;3591640;39;20120;-52
2021/04/20 06:21:03;;;;;;;33.67;12.25;;;;;;;;;;3590331;39;20038;-50
2021/04/20 06:23:29;;;;;;;50.60;12.75;;;;;;;;;;3591738;39;20036;-53
2021/04/20 06:26:00;;;;;;;40.65;12.88;;;;;;;;;;3589092;39;20298;-54
2021/04/20 06:28:26;;;;;;;50.92;12.48;;;;;;;;;;3590868;40;20044;-53
2021/04/20 06:30:55;;;;;;;47.65;13.15;;;;;;;;;;3590777;39;20129;-53
2021/04/20 06:33:22;;;;;;;67.50;13.05;;;;;;;;;;3590554;39;20033;-56
2021/04/20 06:35:47;;;;;;;59.75;13.68;;;;;;;;;;3590821;40;20351;-54
2021/04/20 06:38:13;;;;;;;43.40;13.68;;;;;;;;;;3590493;40;20045;-54
2021/04/20 06:40:52;;;;;;;23.38;14.13;;;;;;;;;;3590700;39;20040;-54
2021/04/20 06:43:25;;;;;;;94.70;13.88;;;;;;;;;;3590565;40;20117;-51
2021/04/20 06:46:22;;;;;;;78.18;13.55;;;;;;;;;;3589783;40;20126;-55
2021/04/20 06:48:53;;;;;;;94.72;13.13;;;;;;;;;;3591116;40;20040;-53
2021/04/20 06:51:22;;;;;;;23.60;13.40;;;;;;;;;;3593028;40;20044;-53
2021/04/20 06:53:50;;;;;;;14.60;12.68;;;;;;;;;;3590979;40;20051;-53
2021/04/20 06:56:27;;;;;;;39.70;14.05;;;;;;;;;;3590801;40;20037;-56
2021/04/20 06:59:26;;;;;;;19.40;15.55;;;;;;;;;;3589574;40;20802;-55
2021/04/20 07:02:23;;;;;;;18.30;12.50;;;;;;;;;;3589159;40;20182;-52
2021/04/20 07:04:57;;;;;;;64.65;15.05;;;;;;;;;;3589929;40;20044;-56
2021/04/20 07:07:29;;;;;;;32.08;14.75;;;;;;;;;;3593343;39;20051;-54
2021/04/20 07:10:05;;;;;;;31.95;14.13;;;;;;;;;;3590260;40;20092;-54
2021/04/20 07:12:33;;;;;;;28.48;14.85;;;;;;;;;;3588441;39;20044;-55
2021/04/20 07:15:00;;;;;;;59.10;14.88;;;;;;;;;;3589429;40;20294;-55
2021/04/20 07:17:48;;;;;;;15.88;13.10;;;;;;;;;;3590626;39;20048;-55
2021/04/20 07:20:35;;;;;;;20.25;15.73;;;;;;;;;;3590647;40;20043;-53
2021/04/20 07:23:38;;;;;;;25.20;14.20;;;;;;;;;;3590226;39;20411;-53
2021/04/20 07:26:32;;;;;;;23.17;16.83;;;;;;;;;;3590240;40;20368;-54
2021/04/20 07:29:15;;;;;;;23.33;16.98;;;;;;;;;;3589872;39;20392;-52
2021/04/20 07:31:52;;;;;;;26.92;18.42;;;;;;;;;;3588984;40;20056;-55
2021/04/20 07:34:23;;;;;;;22.02;18.27;;;;;;;;;;3589143;40;20048;-53
2021/04/20 07:37:07;;;;;;;22.05;18.15;;;;;;;;;;3588782;39;20070;-55
2021/04/20 07:40:00;;;;;;;23.70;18.05;;;;;;;;;;3589470;39;20028;-54
2021/04/20 07:42:42;;;;;;;23.20;19.25;;;;;;;;;;3590651;40;20144;-54
2021/04/20 07:45:23;;;;;;;28.92;20.02;;;;;;;;;;3580424;40;20059;-55
2021/04/20 07:47:54;;;;;;;23.40;19.15;;;;;;;;;;3591073;39;20040;-56
2021/04/20 07:50:29;;;;;;;26.00;19.48;;;;;;;;;;3589730;40;20033;-56
2021/04/20 07:53:05;;;;;;;22.58;20.10;;;;;;;;;;3588629;40;20052;-54
2021/04/20 07:55:42;;;;;;;26.58;21.20;;;;;;;;;;3574559;39;577578;-54
2021/04/20 07:58:09;;;;;;;35.70;21.85;;;;;;;;;;3589191;39;20671;-54
2021/04/20 08:00:42;;;;;;;23.88;21.35;;;;;;;;;;3590129;39;20044;-56
2021/04/20 08:03:07;;;;;;;27.60;22.25;;;;;;;;;;3591149;40;20462;-54
2021/04/20 08:05:41;;;;;;;26.50;20.55;;;;;;;;;;3591342;39;20125;-55
2021/04/20 08:08:10;;;;;;;25.40;21.50;;;;;;;;;;3589764;39;20028;-53
2021/04/20 08:10:58;;;;;;;23.35;20.83;;;;;;;;;;3592194;39;20028;-55
2021/04/20 08:13:30;;;;;;;27.50;21.73;;;;;;;;;;3591106;40;20124;-53
2021/04/20 08:16:00;;;;;;;22.13;19.83;;;;;;;;;;3589473;40;20355;-53
2021/04/20 08:18:34;;;;;;;23.48;19.65;;;;;;;;;;3590915;39;20360;-51
2021/04/20 08:21:03;;;;;;;23.27;20.88;;;;;;;;;;3588797;40;20033;-56
2021/04/20 08:23:31;;;;;;;24.77;21.67;;;;;;;;;;3588823;39;20028;-55
2021/04/20 08:25:58;;;;;;;27.40;23.85;;;;;;;;;;3588602;39;20036;-55
2021/04/20 08:28:29;;;;;;;27.42;23.83;;;;;;;;;;3586874;39;20032;-53
2021/04/20 08:31:11;;;;;;;;;;;;;;;;;;3588797;39;20036;-55
2021/04/20 08:33:41;;;;;;;28.05;24.42;;;;;;;;;;3590032;39;19940;-55
2021/04/20 08:36:15;;;;;;;29.48;24.98;;;;;;;;;;3588900;39;20046;-55
2021/04/20 08:38:51;;;;;;;28.27;23.75;;;;;;;;;;3588564;39;20150;-54
2021/04/20 08:41:24;;;;;;;29.52;25.90;;;;;;;;;;3589664;39;20647;-55
2021/04/20 08:44:14;;;;;;;31.92;25.95;;;;;;;;;;3589043;39;20068;-56
2021/04/20 08:46:53;;;;;;;32.65;29.15;;;;;;;;;;3589229;39;20059;-57
2021/04/20 08:49:22;;;;;;;35.42;28.67;;;;;;;;;;3590755;39;20080;-55
2021/04/20 08:51:53;;;;;;;31.65;27.52;;;;;;;;;;3590557;39;20048;-55
2021/04/20 08:54:19;;;;;;;33.38;28.23;;;;;;;;;;3588899;39;20291;-55
2021/04/20 08:57:02;;;;;;;36.38;28.13;;;;;;;;;;3589493;39;20076;-52
2021/04/20 08:59:30;;;;;;;33.92;27.38;;;;;;;;;;3589068;39;20032;-53
2021/04/20 09:02:20;;;;;;;33.55;28.00;;;;;;;;;;3591872;39;20367;-54
2021/04/20 09:05:03;;;;;;;34.22;28.05;;;;;;;;;;3590383;39;20072;-54
2021/04/20 09:07:44;;;;;;;33.88;25.65;;;;;;;;;;3588806;39;20068;-52
2021/04/20 09:10:15;;;;;;;35.42;26.55;;;;;;;;;;3588679;39;20066;-53
2021/04/20 09:12:44;;;;;;;28.75;25.65;;;;;;;;;;3590863;39;20037;-52
2021/04/20 09:15:12;;;;;;;28.10;24.63;;;;;;;;;;3588345;39;20283;-55
2021/04/20 09:17:43;;;;;;;28.88;25.73;;;;;;;;;;3587812;39;20449;-53
2021/04/20 09:20:18;;;;;;;30.23;25.63;;;;;;;;;;3590014;39;20053;-54
2021/04/20 09:22:57;;;;;;;28.90;24.67;;;;;;;;;;3588696;39;20040;-54
2021/04/20 09:25:29;;;;;;;28.58;25.48;;;;;;;;;;3591100;39;20076;-53
2021/04/20 09:28:16;;;;;;;31.17;24.88;;;;;;;;;;3586987;39;20032;-55
2021/04/20 09:30:47;;;;;;;28.23;25.05;;;;;;;;;;3589793;39;20036;-55
2021/04/20 09:33:19;;;;;;;30.60;24.42;;;;;;;;;;3589521;39;20132;-55
2021/04/20 09:35:45;;;;;;;29.02;22.50;;;;;;;;;;3587424;39;20040;-51
2021/04/20 09:38:12;;;;;;;32.65;24.25;;;;;;;;;;3589345;39;20099;-53
2021/04/20 09:40:40;;;;;;;27.65;22.17;;;;;;;;;;3587245;39;20052;-53
2021/04/20 09:43:25;;;;;;;30.30;22.92;;;;;;;;;;3588920;39;20021;-55
2021/04/20 09:46:07;;;;;;;23.50;19.75;;;;;;;;;;3588200;39;20045;-55
2021/04/20 09:48:58;;;;;;;23.25;20.77;;;;;;;;;;3588400;39;20616;-53
2021/04/20 09:51:43;;;;;;;26.88;20.48;;;;;;;;;;3586387;39;20083;-54
2021/04/20 09:54:15;;;;;;;25.55;20.63;;;;;;;;;;3587293;39;20370;-51
2021/04/20 09:56:43;;;;;;;23.58;19.00;;;;;;;;;;3588482;39;20191;-53
2021/04/20 09:59:42;;;;;;;21.77;19.17;;;;;;;;;;3588927;39;20408;-55
2021/04/20 10:02:36;;;;;;;19.83;17.02;;;;;;;;;;3589719;39;20047;-52
2021/04/20 10:05:31;;;;;;;18.08;15.45;;;;;;;;;;3588119;39;20051;-55
2021/04/20 10:08:02;;;;;;;18.33;14.57;;;;;;;;;;3587829;39;20141;-54
2021/04/20 10:10:59;;;;;;;20.73;14.20;;;;;;;;;;3586727;39;20117;-53
2021/04/20 10:13:47;;;;;;;14.88;13.15;;;;;;;;;;3589475;39;20047;-54
2021/04/20 10:16:30;;;;;;;13.02;11.73;;;;;;;;;;3588860;39;20028;-53
2021/04/20 10:19:14;;;;;;;17.38;11.88;;;;;;;;;;3589628;39;20117;-49
2021/04/20 10:22:18;;;;;;;14.82;13.30;;;;;;;;;;3590153;39;20029;-52
2021/04/20 10:24:56;;;;;;;15.32;13.75;;;;;;;;;;3589734;39;20116;-53
2021/04/20 10:27:26;;;;;;;12.88;10.25;;;;;;;;;;3590253;39;20043;-53
2021/04/20 10:30:11;;;;;;;11.40;9.93;;;;;;;;;;3588290;39;20045;-51
2021/04/20 10:32:37;;;;;;;11.82;9.77;;;;;;;;;;3589326;39;20053;-51
2021/04/20 10:35:05;;;;;;;16.33;10.02;;;;;;;;;;3589648;39;20044;-53
2021/04/20 10:37:38;;;;;;;11.35;7.60;;;;;;;;;;3589414;39;20099;-49
2021/04/20 10:40:15;;;;;;;10.80;8.48;;;;;;;;;;3589460;39;20046;-53
2021/04/20 10:42:47;;;;;;;10.77;9.27;;;;;;;;;;3588394;39;20047;-54
2021/04/20 10:45:14;;;;;;;9.80;7.30;;;;;;;;;;3587649;40;20044;-53
2021/04/20 10:47:41;;;;;;;7.88;7.07;;;;;;;;;;3588989;39;20037;-52
2021/04/20 10:50:08;;;;;;;8.05;6.25;;;;;;;;;;3588879;39;20036;-54
2021/04/20 10:52:36;;;;;;;9.43;8.27;;;;;;;;;;3591036;39;20040;-52
2021/04/20 10:55:08;;;;;;;8.25;7.28;;;;;;;;;;3589433;39;20038;-54
2021/04/20 10:57:38;;;;;;;9.68;7.68;;;;;;;;;;3588793;39;20322;-54
2021/04/20 11:00:05;;;;;;;12.85;8.18;;;;;;;;;;3589729;39;20047;-55
2021/04/20 11:02:37;;;;;;;12.55;8.80;;;;;;;;;;3589468;39;20087;-52
2021/04/20 11:05:04;;;;;;;11.57;9.60;;;;;;;;;;3589109;39;20036;-53
2021/04/20 11:07:39;;;;;;;12.48;9.10;;;;;;;;;;3591502;39;20044;-54
2021/04/20 11:10:08;;;;;;;9.95;8.23;;;;;;;;;;3588433;39;20316;-53
2021/04/20 11:12:49;;;;;;;11.02;9.07;;;;;;;;;;3590417;39;20024;-54
2021/04/20 11:15:26;;;;;;;17.08;11.27;;;;;;;;;;3590208;39;20029;-53
2021/04/20 11:17:54;;;;;;;10.95;8.75;;;;;;;;;;3587936;39;20040;-55
2021/04/20 11:20:44;;;;;;;13.60;9.70;;;;;;;;;;3589641;39;20046;-52
2021/04/20 11:23:10;;;;;;;11.52;10.00;;;;;;;;;;3591158;39;20303;-53
2021/04/20 11:25:48;;;;;;;10.80;8.88;;;;;;;;;;3591509;39;20040;-54
2021/04/20 11:28:26;;;;;;;12.18;9.75;;;;;;;;;;3590324;39;20043;-55
2021/04/20 11:30:56;;;;;;;10.43;8.85;;;;;;;;;;3591202;39;20088;-53
2021/04/20 11:33:27;;;;;;;9.82;8.05;;;;;;;;;;3593287;39;21384;-53
2021/04/20 11:35:55;;;;;;;10.73;8.05;;;;;;;;;;3589343;39;20059;-54
2021/04/20 11:38:21;;;;;;;8.60;7.35;;;;;;;;;;3589551;39;20117;-54
2021/04/20 11:41:01;;;;;;;9.25;7.15;;;;;;;;;;3589423;39;20037;-53
2021/04/20 11:43:28;;;;;;;9.95;7.55;;;;;;;;;;3590694;39;20032;-54
2021/04/20 11:45:56;;;;;;;11.50;7.82;;;;;;;;;;3581222;40;20041;-51
2021/04/20 11:48:33;;;;;;;9.05;7.57;;;;;;;;;;3590381;40;20463;-53
2021/04/20 11:51:02;;;;;;;8.48;7.40;;;;;;;;;;3590854;39;20052;-55
2021/04/20 11:53:35;;;;;;;8.77;7.28;;;;;;;;;;3590045;40;20028;-54
2021/04/20 11:56:02;;;;;;;8.63;7.70;;;;;;;;;;3590257;39;20094;-54
2021/04/20 11:58:47;;;;;;;11.35;7.88;;;;;;;;;;3589582;40;20381;-54
2021/04/20 12:01:15;;;;;;;9.02;6.90;;;;;;;;;;3589262;39;20032;-54
2021/04/20 12:04:06;;;;;;;8.23;6.75;;;;;;;;;;3590993;39;20024;-54
2021/04/20 12:06:42;;;;;;;8.88;6.93;;;;;;;;;;3588884;40;20334;-53
2021/04/20 12:09:07;;;;;;;9.45;7.38;;;;;;;;;;3588036;40;20039;-53
2021/04/20 12:11:34;;;;;;;9.05;7.38;;;;;;;;;;3589974;39;20129;-56
2021/04/20 12:14:00;;;;;;;8.25;6.63;;;;;;;;;;3590319;40;20037;-54
2021/04/20 12:16:32;;;;;;;7.53;6.43;;;;;;;;;;3590207;40;20032;-57
2021/04/20 12:18:59;;;;;;;11.18;6.72;;;;;;;;;;3587599;39;20364;-55
2021/04/20 12:21:28;;;;;;;7.35;6.03;;;;;;;;;;3590474;40;20028;-55
2021/04/20 12:23:58;;;;;;;6.55;5.85;;;;;;;;;;3592521;39;20036;-56
2021/04/20 12:26:27;;;;;;;7.45;6.50;;;;;;;;;;3590243;40;20524;-56
2021/04/20 12:28:57;;;;;;;9.40;6.13;;;;;;;;;;3589738;40;20039;-53
2021/04/20 12:31:36;;;;;;;7.50;5.83;;;;;;;;;;3590680;39;20056;-55
2021/04/20 12:34:03;;;;;;;7.87;5.80;;;;;;;;;;3589598;40;20045;-54
2021/04/20 12:36:31;;;;;;;9.05;6.75;;;;;;;;;;3590568;39;20417;-56
2021/04/20 12:39:01;;;;;;;6.47;5.38;;;;;;;;;;3589307;40;20036;-55
2021/04/20 12:41:29;;;;;;;6.78;6.00;;;;;;;;;;3588904;40;20040;-53
2021/04/20 12:43:58;;;;;;;12.02;6.95;;;;;;;;;;3589691;39;20086;-56
2021/04/20 12:46:27;;;;;;;7.50;6.07;;;;;;;;;;3589196;40;20367;-54
2021/04/20 12:48:56;;;;;;;8.35;5.70;;;;;;;;;;3588941;40;20043;-55
2021/04/20 12:51:23;;;;;;;9.15;5.85;;;;;;;;;;3589589;40;20028;-55
2021/04/20 12:53:51;;;;;;;11.43;6.78;;;;;;;;;;3587863;40;20048;-53
2021/04/20 12:56:41;;;;;;;6.72;5.72;;;;;;;;;;3590304;39;20052;-55
2021/04/20 12:59:21;;;;;;;10.15;7.60;;;;;;;;;;3590066;39;20073;-54
2021/04/20 13:01:52;;;;;;;6.78;5.75;;;;;;;;;;3589290;40;20052;-54
2021/04/20 13:04:32;;;;;;;7.68;6.43;;;;;;;;;;3589473;40;20045;-56
2021/04/20 13:06:59;;;;;;;8.35;6.78;;;;;;;;;;3588687;39;20040;-52
2021/04/20 13:09:38;;;;;;;8.95;7.60;;;;;;;;;;3592009;40;20295;-56
2021/04/20 13:12:16;;;;;;;9.30;7.47;;;;;;;;;;3591079;40;20065;-56
2021/04/20 13:14:46;;;;;;;11.25;7.80;;;;;;;;;;3590484;39;20189;-56
2021/04/20 13:17:17;;;;;;;;;;;;;;;;;;3590486;40;20083;-56
2021/04/20 13:19:47;;;;;;;15.43;8.30;;;;;;;;;;3590911;39;19939;-55
2021/04/20 13:22:13;;;;;;;;;;;;;;;;;;3595501;39;20052;-54
2021/04/20 13:24:40;;;;;;;10.30;7.13;;;;;;;;;;3591741;40;20021;-56
2021/04/20 13:27:07;;;;;;;9.77;7.53;;;;;;;;;;3592068;39;20048;-56
2021/04/20 13:29:32;;;;;;;7.80;5.85;;;;;;;;;;3590648;39;20105;-55
2021/04/20 13:32:05;;;;;;;7.70;5.80;;;;;;;;;;3592544;39;20040;-56
2021/04/20 13:34:35;;;;;;;9.18;5.93;;;;;;;;;;3587868;40;20133;-55
2021/04/20 13:37:03;;;;;;;6.10;5.45;;;;;;;;;;3589660;40;20113;-56
2021/04/20 13:39:35;;;;;;;7.30;5.47;;;;;;;;;;3589716;40;20464;-54
2021/04/20 13:42:04;;;;;;;9.35;6.45;;;;;;;;;;3588722;39;20025;-56
2021/04/20 13:44:32;;;;;;;8.02;6.30;;;;;;;;;;3588719;40;20032;-53
2021/04/20 13:46:59;;;;;;;8.32;6.43;;;;;;;;;;3588820;40;20314;-56
2021/04/20 13:49:25;;;;;;;7.25;5.53;;;;;;;;;;3588268;39;20049;-53
2021/04/20 13:52:01;;;;;;;9.57;5.68;;;;;;;;;;3589705;40;20048;-54
2021/04/20 13:54:33;;;;;;;9.48;6.55;;;;;;;;;;3588727;40;20040;-53
2021/04/20 13:57:02;;;;;;;10.18;5.97;;;;;;;;;;3589027;40;20079;-54
2021/04/20 13:59:31;;;;;;;6.60;5.47;;;;;;;;;;3588751;40;20124;-51
2021/04/20 14:01:57;;;;;;;7.38;4.82;;;;;;;;;;3589931;40;20084;-55
2021/04/20 14:04:39;;;;;;;6.90;5.20;;;;;;;;;;3590858;39;20028;-55
2021/04/20 14:07:15;;;;;;;6.70;4.47;;;;;;;;;;3588880;40;20048;-56
2021/04/20 14:09:51;;;;;;;10.70;5.10;;;;;;;;;;3590778;39;20040;-55
2021/04/20 14:12:26;;;;;;;7.40;5.07;;;;;;;;;;3589903;39;20040;-53
2021/04/20 14:15:02;;;;;;;6.15;4.55;;;;;;;;;;3591130;39;20121;-53
2021/04/20 14:17:32;;;;;;;7.50;4.22;;;;;;;;;;3588671;40;20040;-54
2021/04/20 14:20:00;;;;;;;6.75;5.20;;;;;;;;;;3588226;39;20468;-55
2021/04/20 14:22:26;;;;;;;6.30;4.80;;;;;;;;;;3590318;39;20618;-56
2021/04/20 14:24:59;;;;;;;8.82;4.55;;;;;;;;;;3590524;39;20032;-54
2021/04/20 14:27:30;;;;;;;5.60;4.50;;;;;;;;;;3586320;39;20035;-54
2021/04/20 14:30:00;;;;;;;;;;;;;;;;;;3589192;39;20040;-55
2021/04/20 14:32:28;;;;;;;6.32;4.00;;;;;;;;;;3588989;39;19932;-55
2021/04/20 14:34:54;;;;;;;7.28;3.97;;;;;;;;;;3589049;40;20617;-55
2021/04/20 14:37:20;;;;;;;6.38;4.35;;;;;;;;;;3589819;39;20048;-51
2021/04/20 14:39:50;;;;;;;6.35;4.30;;;;;;;;;;3590949;40;20126;-54
2021/04/20 14:42:16;;;;;;;5.40;4.22;;;;;;;;;;3590900;40;20061;-52
2021/04/20 14:44:43;;;;;;;5.45;4.80;;;;;;;;;;3590132;39;20025;-53
2021/04/20 14:47:12;;;;;;;7.43;4.50;;;;;;;;;;3589716;40;20021;-54
2021/04/20 14:49:43;;;;;;;9.05;4.95;;;;;;;;;;3590823;39;20037;-52
2021/04/20 14:52:13;;;;;;;6.78;4.68;;;;;;;;;;3590586;40;20125;-53
2021/04/20 14:54:45;;;;;;;8.57;4.53;;;;;;;;;;3589641;39;20059;-52